sensor_id;sensor_type;location;lat;lon;timestamp;pressure;altitude;pressure_sealevel;temperature;humidity
46464;BME280;32161;48.148;-1.554;2023-05-17T00:02:19;102009.75;;;10.40;75.04
46464;BME280;32161;48.148;-1.554;2023-05-17T00:04:46;102021.88;;;10.38;75.01
46464;BME280;32161;48.148;-1.554;2023-05-17T00:07:15;102015.94;;;10.27;75.46
46464;BME280;32161;48.148;-1.554;2023-05-17T00:09:43;102014.44;;;10.25;75.69
46464;BME280;32161;48.148;-1.554;2023-05-17T00:12:10;102020.69;;;10.25;75.64
46464;BME280;32161;48.148;-1.554;2023-05-17T00:14:38;102012.72;;;10.24;75.91
46464;BME280;32161;48.148;-1.554;2023-05-17T00:17:05;102003.56;;;10.25;75.90
46464;BME280;32161;48.148;-1.554;2023-05-17T00:19:33;102000.19;;;10.23;75.88
46464;BME280;32161;48.148;-1.554;2023-05-17T00:22:01;101998.69;;;10.20;76.00
46464;BME280;32161;48.148;-1.554;2023-05-17T00:24:30;101996.19;;;10.19;76.23
46464;BME280;32161;48.148;-1.554;2023-05-17T00:26:57;102008.72;;;10.20;75.99
46464;BME280;32161;48.148;-1.554;2023-05-17T00:29:25;102010.78;;;10.18;76.10
46464;BME280;32161;48.148;-1.554;2023-05-17T00:31:53;102010.16;;;10.16;76.30
46464;BME280;32161;48.148;-1.554;2023-05-17T00:34:20;102008.50;;;10.15;76.24
46464;BME280;32161;48.148;-1.554;2023-05-17T00:36:48;102013.25;;;10.13;76.55
46464;BME280;32161;48.148;-1.554;2023-05-17T00:39:15;102003.63;;;10.10;76.31
46464;BME280;32161;48.148;-1.554;2023-05-17T00:41:44;102007.97;;;10.05;76.52
46464;BME280;32161;48.148;-1.554;2023-05-17T00:44:11;102009.41;;;10.00;76.94
46464;BME280;32161;48.148;-1.554;2023-05-17T00:46:39;102007.91;;;9.98;77.16
46464;BME280;32161;48.148;-1.554;2023-05-17T00:49:07;101999.13;;;9.96;76.90
46464;BME280;32161;48.148;-1.554;2023-05-17T00:51:35;102009.78;;;9.97;77.31
46464;BME280;32161;48.148;-1.554;2023-05-17T00:54:03;102003.50;;;9.97;77.22
46464;BME280;32161;48.148;-1.554;2023-05-17T00:56:31;102008.13;;;9.96;77.09
46464;BME280;32161;48.148;-1.554;2023-05-17T00:59:01;102000.34;;;9.93;77.09
46464;BME280;32161;48.148;-1.554;2023-05-17T01:01:30;102006.81;;;9.92;77.20
46464;BME280;32161;48.148;-1.554;2023-05-17T01:03:57;102007.66;;;9.93;77.08
46464;BME280;32161;48.148;-1.554;2023-05-17T01:06:25;101998.22;;;9.89;77.76
46464;BME280;32161;48.148;-1.554;2023-05-17T01:08:53;102005.72;;;9.87;77.62
46464;BME280;32161;48.148;-1.554;2023-05-17T01:11:31;102002.81;;;9.88;77.57
46464;BME280;32161;48.148;-1.554;2023-05-17T01:14:17;102005.72;;;9.87;77.47
46464;BME280;32161;48.148;-1.554;2023-05-17T01:16:56;102008.63;;;9.85;77.57
46464;BME280;32161;48.148;-1.554;2023-05-17T01:19:49;102005.09;;;9.85;78.22
46464;BME280;32161;48.148;-1.554;2023-05-17T01:22:31;102004.03;;;9.86;78.45
46464;BME280;32161;48.148;-1.554;2023-05-17T01:25:26;101998.81;;;9.84;78.07
46464;BME280;32161;48.148;-1.554;2023-05-17T01:27:59;102001.69;;;9.83;78.04
46464;BME280;32161;48.148;-1.554;2023-05-17T01:30:29;102001.53;;;9.84;77.67
46464;BME280;32161;48.148;-1.554;2023-05-17T01:32:59;101998.34;;;9.81;77.95
46464;BME280;32161;48.148;-1.554;2023-05-17T01:35:27;102006.50;;;9.81;77.78
46464;BME280;32161;48.148;-1.554;2023-05-17T01:37:54;102005.22;;;9.76;77.46
46464;BME280;32161;48.148;-1.554;2023-05-17T01:40:22;102004.75;;;9.73;77.71
46464;BME280;32161;48.148;-1.554;2023-05-17T01:42:58;102002.88;;;9.73;77.51
46464;BME280;32161;48.148;-1.554;2023-05-17T01:45:33;102008.50;;;9.72;77.80
46464;BME280;32161;48.148;-1.554;2023-05-17T01:48:14;102003.47;;;9.69;77.79
46464;BME280;32161;48.148;-1.554;2023-05-17T01:50:48;102015.34;;;9.68;78.17
46464;BME280;32161;48.148;-1.554;2023-05-17T01:53:22;102001.97;;;9.66;78.21
46464;BME280;32161;48.148;-1.554;2023-05-17T01:55:55;102000.28;;;9.65;78.09
46464;BME280;32161;48.148;-1.554;2023-05-17T01:58:25;102006.28;;;9.61;79.07
46464;BME280;32161;48.148;-1.554;2023-05-17T02:00:57;101998.94;;;9.54;79.58
46464;BME280;32161;48.148;-1.554;2023-05-17T02:03:27;102001.38;;;9.49;79.85
46464;BME280;32161;48.148;-1.554;2023-05-17T02:05:55;102001.94;;;9.45;79.91
46464;BME280;32161;48.148;-1.554;2023-05-17T02:08:23;102000.25;;;9.44;79.52
46464;BME280;32161;48.148;-1.554;2023-05-17T02:10:50;101995.22;;;9.41;80.05
46464;BME280;32161;48.148;-1.554;2023-05-17T02:13:18;102002.53;;;9.40;80.04
46464;BME280;32161;48.148;-1.554;2023-05-17T02:15:47;101998.13;;;9.39;80.00
46464;BME280;32161;48.148;-1.554;2023-05-17T02:18:15;101992.81;;;9.31;80.61
46464;BME280;32161;48.148;-1.554;2023-05-17T02:20:42;101997.97;;;9.26;80.66
46464;BME280;32161;48.148;-1.554;2023-05-17T02:23:10;101997.69;;;9.21;81.29
46464;BME280;32161;48.148;-1.554;2023-05-17T02:25:37;101996.19;;;9.18;81.56
46464;BME280;32161;48.148;-1.554;2023-05-17T02:28:05;101995.19;;;9.19;81.38
46464;BME280;32161;48.148;-1.554;2023-05-17T02:30:32;101995.38;;;9.18;80.88
46464;BME280;32161;48.148;-1.554;2023-05-17T02:33:01;101992.03;;;9.16;81.01
46464;BME280;32161;48.148;-1.554;2023-05-17T02:35:29;102003.91;;;9.15;81.23
46464;BME280;32161;48.148;-1.554;2023-05-17T02:37:56;102001.19;;;9.15;81.47
46464;BME280;32161;48.148;-1.554;2023-05-17T02:40:24;102001.19;;;9.15;81.98
46464;BME280;32161;48.148;-1.554;2023-05-17T02:42:52;102007.91;;;9.19;81.69
46464;BME280;32161;48.148;-1.554;2023-05-17T02:45:19;101997.06;;;9.19;80.84
46464;BME280;32161;48.148;-1.554;2023-05-17T02:47:47;102004.81;;;9.22;81.22
46464;BME280;32161;48.148;-1.554;2023-05-17T02:50:16;102007.50;;;9.22;82.02
46464;BME280;32161;48.148;-1.554;2023-05-17T02:52:43;102004.81;;;9.22;82.43
46464;BME280;32161;48.148;-1.554;2023-05-17T02:55:11;102000.03;;;9.24;82.74
46464;BME280;32161;48.148;-1.554;2023-05-17T02:57:38;102006.75;;;9.28;83.17
46464;BME280;32161;48.148;-1.554;2023-05-17T03:00:07;102001.34;;;9.28;83.43
46464;BME280;32161;48.148;-1.554;2023-05-17T03:02:35;102006.75;;;9.28;83.80
46464;BME280;32161;48.148;-1.554;2023-05-17T03:05:03;102001.97;;;9.30;83.84
46464;BME280;32161;48.148;-1.554;2023-05-17T03:07:32;102004.50;;;9.32;84.34
46464;BME280;32161;48.148;-1.554;2023-05-17T03:10:00;102013.75;;;9.37;84.24
46464;BME280;32161;48.148;-1.554;2023-05-17T03:12:27;102005.22;;;9.40;84.86
46464;BME280;32161;48.148;-1.554;2023-05-17T03:14:55;102014.66;;;9.44;84.53
46464;BME280;32161;48.148;-1.554;2023-05-17T03:17:22;102014.50;;;9.46;84.73
46464;BME280;32161;48.148;-1.554;2023-05-17T03:19:50;102008.19;;;9.45;84.92
46464;BME280;32161;48.148;-1.554;2023-05-17T03:22:17;102015.34;;;9.46;84.68
46464;BME280;32161;48.148;-1.554;2023-05-17T03:24:46;102014.50;;;9.46;84.55
46464;BME280;32161;48.148;-1.554;2023-05-17T03:27:14;102019.06;;;9.45;85.29
46464;BME280;32161;48.148;-1.554;2023-05-17T03:29:41;102014.66;;;9.44;84.64
46464;BME280;32161;48.148;-1.554;2023-05-17T03:32:09;102015.34;;;9.46;84.02
46464;BME280;32161;48.148;-1.554;2023-05-17T03:34:36;102015.34;;;9.46;83.71
46464;BME280;32161;48.148;-1.554;2023-05-17T03:37:04;102013.63;;;9.45;83.49
46464;BME280;32161;48.148;-1.554;2023-05-17T03:39:32;102011.97;;;9.44;82.83
46464;BME280;32161;48.148;-1.554;2023-05-17T03:42:01;102007.56;;;9.43;82.16
46464;BME280;32161;48.148;-1.554;2023-05-17T03:44:28;102016.94;;;9.41;82.59
46464;BME280;32161;48.148;-1.554;2023-05-17T03:46:56;102021.72;;;9.39;82.22
46464;BME280;32161;48.148;-1.554;2023-05-17T03:49:23;102023.59;;;9.38;82.32
46464;BME280;32161;48.148;-1.554;2023-05-17T03:51:51;102019.00;;;9.39;81.75
46464;BME280;32161;48.148;-1.554;2023-05-17T03:54:18;102015.16;;;9.33;81.89
46464;BME280;32161;48.148;-1.554;2023-05-17T03:56:46;102022.00;;;9.29;83.17
46464;BME280;32161;48.148;-1.554;2023-05-17T03:59:16;102026.97;;;9.25;84.02
46464;BME280;32161;48.148;-1.554;2023-05-17T04:01:44;102027.16;;;9.24;83.13
46464;BME280;32161;48.148;-1.554;2023-05-17T04:04:11;102030.06;;;9.22;82.93
46464;BME280;32161;48.148;-1.554;2023-05-17T04:06:39;102027.53;;;9.21;82.66
46464;BME280;32161;48.148;-1.554;2023-05-17T04:09:07;102029.63;;;9.19;83.07
46464;BME280;32161;48.148;-1.554;2023-05-17T04:11:35;102038.13;;;9.16;83.67
46464;BME280;32161;48.148;-1.554;2023-05-17T04:14:04;102034.75;;;9.14;83.42
46464;BME280;32161;48.148;-1.554;2023-05-17T04:16:33;102027.66;;;9.13;83.17
46464;BME280;32161;48.148;-1.554;2023-05-17T04:19:01;102037.47;;;9.14;82.57
46464;BME280;32161;48.148;-1.554;2023-05-17T04:21:29;102029.06;;;9.09;82.31
46464;BME280;32161;48.148;-1.554;2023-05-17T04:23:56;102040.94;;;9.08;82.47
46464;BME280;32161;48.148;-1.554;2023-05-17T04:26:24;102037.19;;;9.09;83.39
46464;BME280;32161;48.148;-1.554;2023-05-17T04:28:52;102044.66;;;9.07;84.22
46464;BME280;32161;48.148;-1.554;2023-05-17T04:31:20;102043.38;;;9.02;84.15
46464;BME280;32161;48.148;-1.554;2023-05-17T04:33:49;102047.84;;;8.95;84.14
46464;BME280;32161;48.148;-1.554;2023-05-17T04:36:16;102051.81;;;8.93;84.12
46464;BME280;32161;48.148;-1.554;2023-05-17T04:38:44;102053.38;;;8.87;84.04
46464;BME280;32161;48.148;-1.554;2023-05-17T04:41:12;102065.63;;;8.83;84.30
46464;BME280;32161;48.148;-1.554;2023-05-17T04:43:39;102061.25;;;8.82;84.24
46464;BME280;32161;48.148;-1.554;2023-05-17T04:46:07;102071.72;;;8.85;84.09
46464;BME280;32161;48.148;-1.554;2023-05-17T04:48:35;102066.28;;;8.85;83.63
46464;BME280;32161;48.148;-1.554;2023-05-17T04:51:05;102071.88;;;8.84;83.85
46464;BME280;32161;48.148;-1.554;2023-05-17T04:53:33;102072.09;;;8.82;84.41
46464;BME280;32161;48.148;-1.554;2023-05-17T04:56:01;102083.75;;;8.83;84.62
46464;BME280;32161;48.148;-1.554;2023-05-17T04:58:29;102071.41;;;8.80;84.10
46464;BME280;32161;48.148;-1.554;2023-05-17T05:00:56;102076.19;;;8.78;83.54
46464;BME280;32161;48.148;-1.554;2023-05-17T05:03:24;102074.69;;;8.75;83.65
46464;BME280;32161;48.148;-1.554;2023-05-17T05:05:52;102078.63;;;8.73;83.63
46464;BME280;32161;48.148;-1.554;2023-05-17T05:08:21;102079.47;;;8.73;84.11
46464;BME280;32161;48.148;-1.554;2023-05-17T05:10:48;102082.34;;;8.72;84.06
46464;BME280;32161;48.148;-1.554;2023-05-17T05:13:16;102094.22;;;8.71;84.71
46464;BME280;32161;48.148;-1.554;2023-05-17T05:15:44;102105.06;;;8.71;85.14
46464;BME280;32161;48.148;-1.554;2023-05-17T05:18:12;102095.75;;;8.73;84.72
46464;BME280;32161;48.148;-1.554;2023-05-17T05:20:39;102091.63;;;8.77;84.49
46464;BME280;32161;48.148;-1.554;2023-05-17T05:23:07;102091.44;;;8.79;85.39
46464;BME280;32161;48.148;-1.554;2023-05-17T05:25:37;102095.44;;;8.83;85.52
46464;BME280;32161;48.148;-1.554;2023-05-17T05:28:05;102098.16;;;8.83;86.41
46464;BME280;32161;48.148;-1.554;2023-05-17T05:30:32;102092.75;;;8.83;87.02
46464;BME280;32161;48.148;-1.554;2023-05-17T05:33:00;102105.09;;;8.86;86.25
46464;BME280;32161;48.148;-1.554;2023-05-17T05:35:28;102103.88;;;8.88;86.42
46464;BME280;32161;48.148;-1.554;2023-05-17T05:37:56;102109.38;;;8.95;86.46
46464;BME280;32161;48.148;-1.554;2023-05-17T05:40:24;102113.13;;;8.94;86.57
46464;BME280;32161;48.148;-1.554;2023-05-17T05:42:53;102120.06;;;8.96;86.47
46464;BME280;32161;48.148;-1.554;2023-05-17T05:45:21;102121.00;;;9.03;86.73
46464;BME280;32161;48.148;-1.554;2023-05-17T05:47:49;102118.56;;;9.09;86.48
46464;BME280;32161;48.148;-1.554;2023-05-17T05:50:16;102121.75;;;9.12;86.76
46464;BME280;32161;48.148;-1.554;2023-05-17T05:52:44;102121.84;;;9.19;87.13
46464;BME280;32161;48.148;-1.554;2023-05-17T05:55:12;102123.81;;;9.25;87.82
46464;BME280;32161;48.148;-1.554;2023-05-17T05:57:39;102128.50;;;9.31;88.05
46464;BME280;32161;48.148;-1.554;2023-05-17T06:00:10;102117.53;;;9.39;88.97
46464;BME280;32161;48.148;-1.554;2023-05-17T06:02:38;102129.78;;;9.50;89.02
46464;BME280;32161;48.148;-1.554;2023-05-17T06:05:07;102119.47;;;9.60;89.23
46464;BME280;32161;48.148;-1.554;2023-05-17T06:07:35;102117.75;;;9.74;89.56
46464;BME280;32161;48.148;-1.554;2023-05-17T06:10:02;102123.31;;;9.87;89.60
46464;BME280;32161;48.148;-1.554;2023-05-17T06:12:30;102124.97;;;10.03;89.86
46464;BME280;32161;48.148;-1.554;2023-05-17T06:14:57;102131.38;;;10.17;89.90
46464;BME280;32161;48.148;-1.554;2023-05-17T06:17:26;102127.81;;;10.31;90.31
46464;BME280;32161;48.148;-1.554;2023-05-17T06:19:54;102127.72;;;10.46;90.87
46464;BME280;32161;48.148;-1.554;2023-05-17T06:22:21;102125.78;;;10.61;91.05
46464;BME280;32161;48.148;-1.554;2023-05-17T06:24:49;102126.69;;;10.75;91.21
46464;BME280;32161;48.148;-1.554;2023-05-17T06:27:17;102128.09;;;10.92;91.20
46464;BME280;32161;48.148;-1.554;2023-05-17T06:29:44;102132.38;;;11.08;92.23
46464;BME280;32161;48.148;-1.554;2023-05-17T06:32:12;102123.41;;;11.14;92.73
46464;BME280;32161;48.148;-1.554;2023-05-17T06:34:41;102127.28;;;11.33;92.76
46464;BME280;32161;48.148;-1.554;2023-05-17T06:37:08;102121.72;;;11.48;92.91
46464;BME280;32161;48.148;-1.554;2023-05-17T06:39:36;102127.06;;;11.69;92.68
46464;BME280;32161;48.148;-1.554;2023-05-17T06:42:04;102127.09;;;11.76;92.93
46464;BME280;32161;48.148;-1.554;2023-05-17T06:44:32;102124.63;;;11.88;92.88
46464;BME280;32161;48.148;-1.554;2023-05-17T06:46:59;102138.06;;;12.03;92.24
46464;BME280;32161;48.148;-1.554;2023-05-17T06:49:27;102139.50;;;11.85;92.01
46464;BME280;32161;48.148;-1.554;2023-05-17T06:51:56;102130.13;;;12.08;91.33
46464;BME280;32161;48.148;-1.554;2023-05-17T06:54:28;102136.22;;;12.16;91.54
46464;BME280;32161;48.148;-1.554;2023-05-17T06:57:00;102133.75;;;12.35;90.42
46464;BME280;32161;48.148;-1.554;2023-05-17T06:59:28;102129.34;;;12.54;89.26
46464;BME280;32161;48.148;-1.554;2023-05-17T07:01:56;102137.72;;;12.72;88.29
46464;BME280;32161;48.148;-1.554;2023-05-17T07:04:26;102131.88;;;12.88;88.08
46464;BME280;32161;48.148;-1.554;2023-05-17T07:06:54;102136.88;;;12.98;87.45
46464;BME280;32161;48.148;-1.554;2023-05-17T07:09:23;102136.03;;;13.11;85.99
46464;BME280;32161;48.148;-1.554;2023-05-17T07:11:50;102141.25;;;13.26;86.15
46464;BME280;32161;48.148;-1.554;2023-05-17T07:14:18;102138.28;;;13.40;85.82
46464;BME280;32161;48.148;-1.554;2023-05-17T07:16:45;102140.97;;;13.54;85.23
46464;BME280;32161;48.148;-1.554;2023-05-17T07:19:14;102144.72;;;13.66;85.58
46464;BME280;32161;48.148;-1.554;2023-05-17T07:21:41;102140.25;;;13.78;84.99
46464;BME280;32161;48.148;-1.554;2023-05-17T07:24:09;102129.47;;;13.90;85.27
46464;BME280;32161;48.148;-1.554;2023-05-17T07:26:38;102136.09;;;14.07;83.65
46464;BME280;32161;48.148;-1.554;2023-05-17T07:29:05;102128.91;;;14.13;83.81
46464;BME280;32161;48.148;-1.554;2023-05-17T07:31:33;102134.75;;;14.23;82.83
46464;BME280;32161;48.148;-1.554;2023-05-17T07:34:01;102136.78;;;14.34;82.44
46464;BME280;32161;48.148;-1.554;2023-05-17T07:36:28;102143.78;;;14.49;81.58
46464;BME280;32161;48.148;-1.554;2023-05-17T07:38:57;102143.09;;;14.60;81.37
46464;BME280;32161;48.148;-1.554;2023-05-17T07:41:24;102134.13;;;14.78;80.98
46464;BME280;32161;48.148;-1.554;2023-05-17T07:43:53;102135.97;;;14.84;81.34
46464;BME280;32161;48.148;-1.554;2023-05-17T07:46:21;102131.44;;;14.96;81.32
46464;BME280;32161;48.148;-1.554;2023-05-17T07:48:48;102135.94;;;15.09;80.31
46464;BME280;32161;48.148;-1.554;2023-05-17T07:51:16;102128.88;;;15.20;77.78
46464;BME280;32161;48.148;-1.554;2023-05-17T07:53:45;102122.41;;;15.32;77.27
46464;BME280;32161;48.148;-1.554;2023-05-17T07:56:12;102130.09;;;15.42;77.41
46464;BME280;32161;48.148;-1.554;2023-05-17T07:58:40;102136.25;;;15.56;77.07
46464;BME280;32161;48.148;-1.554;2023-05-17T08:01:09;102133.84;;;15.66;76.24
46464;BME280;32161;48.148;-1.554;2023-05-17T08:03:36;102130.13;;;15.91;74.16
46464;BME280;32161;48.148;-1.554;2023-05-17T08:06:04;102128.47;;;15.90;74.92
46464;BME280;32161;48.148;-1.554;2023-05-17T08:08:32;102135.66;;;16.02;72.90
46464;BME280;32161;48.148;-1.554;2023-05-17T08:11:00;102138.44;;;16.14;70.12
46464;BME280;32161;48.148;-1.554;2023-05-17T08:13:27;102128.56;;;16.13;71.50
46464;BME280;32161;48.148;-1.554;2023-05-17T08:15:55;102127.03;;;16.17;73.43
46464;BME280;32161;48.148;-1.554;2023-05-17T08:18:26;102128.22;;;16.21;71.70
46464;BME280;32161;48.148;-1.554;2023-05-17T08:20:53;102130.06;;;16.39;71.88
46464;BME280;32161;48.148;-1.554;2023-05-17T08:23:21;102123.63;;;16.33;70.58
46464;BME280;32161;48.148;-1.554;2023-05-17T08:25:49;102116.72;;;16.43;68.96
46464;BME280;32161;48.148;-1.554;2023-05-17T08:28:17;102128.91;;;16.47;69.25
46464;BME280;32161;48.148;-1.554;2023-05-17T08:30:44;102131.28;;;16.55;71.36
46464;BME280;32161;48.148;-1.554;2023-05-17T08:33:12;102129.63;;;16.54;69.16
46464;BME280;32161;48.148;-1.554;2023-05-17T08:35:41;102139.00;;;16.76;67.41
46464;BME280;32161;48.148;-1.554;2023-05-17T08:38:08;102135.53;;;16.93;67.50
46464;BME280;32161;48.148;-1.554;2023-05-17T08:40:36;102128.59;;;17.14;64.43
46464;BME280;32161;48.148;-1.554;2023-05-17T08:43:03;102126.69;;;16.91;66.00
46464;BME280;32161;48.148;-1.554;2023-05-17T08:45:32;102125.75;;;16.85;65.20
46464;BME280;32161;48.148;-1.554;2023-05-17T08:48:01;102130.63;;;16.95;67.29
46464;BME280;32161;48.148;-1.554;2023-05-17T08:50:30;102126.56;;;16.97;67.61
46464;BME280;32161;48.148;-1.554;2023-05-17T08:53:01;102129.94;;;17.11;66.43
46464;BME280;32161;48.148;-1.554;2023-05-17T08:55:31;102131.69;;;17.29;67.40
46464;BME280;32161;48.148;-1.554;2023-05-17T08:58:00;102129.91;;;17.35;65.59
46464;BME280;32161;48.148;-1.554;2023-05-17T09:00:29;102128.22;;;17.45;64.35
46464;BME280;32161;48.148;-1.554;2023-05-17T09:02:58;102122.91;;;17.55;64.89
46464;BME280;32161;48.148;-1.554;2023-05-17T09:05:26;102126.13;;;17.64;65.49
46464;BME280;32161;48.148;-1.554;2023-05-17T09:07:55;102126.44;;;17.68;65.48
46464;BME280;32161;48.148;-1.554;2023-05-17T09:10:25;102121.97;;;17.90;62.75
46464;BME280;32161;48.148;-1.554;2023-05-17T09:12:53;102129.88;;;17.87;64.67
46464;BME280;32161;48.148;-1.554;2023-05-17T09:15:22;102138.34;;;17.97;64.87
46464;BME280;32161;48.148;-1.554;2023-05-17T09:17:53;102134.63;;;18.03;64.84
46464;BME280;32161;48.148;-1.554;2023-05-17T09:20:25;102122.56;;;18.21;61.29
46464;BME280;32161;48.148;-1.554;2023-05-17T09:22:59;102121.63;;;18.15;61.40
46464;BME280;32161;48.148;-1.554;2023-05-17T09:25:29;102118.06;;;18.32;59.91
46464;BME280;32161;48.148;-1.554;2023-05-17T09:28:00;102126.59;;;18.30;60.71
46464;BME280;32161;48.148;-1.554;2023-05-17T09:30:30;102125.50;;;18.48;61.21
46464;BME280;32161;48.148;-1.554;2023-05-17T09:33:04;102120.25;;;18.46;60.26
46464;BME280;32161;48.148;-1.554;2023-05-17T09:35:34;102121.34;;;18.62;60.83
46464;BME280;32161;48.148;-1.554;2023-05-17T09:38:07;102111.50;;;18.66;59.61
46464;BME280;32161;48.148;-1.554;2023-05-17T09:40:39;102109.44;;;18.73;59.82
46464;BME280;32161;48.148;-1.554;2023-05-17T09:43:07;102114.25;;;19.00;58.92
46464;BME280;32161;48.148;-1.554;2023-05-17T09:45:35;102109.13;;;19.09;57.50
46464;BME280;32161;48.148;-1.554;2023-05-17T09:48:13;102111.00;;;19.03;57.39
46464;BME280;32161;48.148;-1.554;2023-05-17T09:50:44;102108.06;;;18.93;56.83
46464;BME280;32161;48.148;-1.554;2023-05-17T09:53:26;102104.50;;;18.92;56.24
46464;BME280;32161;48.148;-1.554;2023-05-17T09:55:57;102102.44;;;19.05;60.15
46464;BME280;32161;48.148;-1.554;2023-05-17T09:58:26;102107.50;;;19.30;59.94
46464;BME280;32161;48.148;-1.554;2023-05-17T10:00:59;102107.78;;;19.33;53.24
46464;BME280;32161;48.148;-1.554;2023-05-17T10:03:30;102102.59;;;19.37;51.47
46464;BME280;32161;48.148;-1.554;2023-05-17T10:06:00;102094.47;;;19.47;49.95
46464;BME280;32161;48.148;-1.554;2023-05-17T10:08:29;102093.91;;;19.45;49.39
46464;BME280;32161;48.148;-1.554;2023-05-17T10:11:03;102099.78;;;19.32;51.03
46464;BME280;32161;48.148;-1.554;2023-05-17T10:13:36;102110.50;;;19.50;48.84
46464;BME280;32161;48.148;-1.554;2023-05-17T10:16:06;102097.03;;;19.32;50.54
46464;BME280;32161;48.148;-1.554;2023-05-17T10:18:33;102101.91;;;19.46;51.80
46464;BME280;32161;48.148;-1.554;2023-05-17T10:21:01;102097.69;;;19.61;51.54
46464;BME280;32161;48.148;-1.554;2023-05-17T10:23:29;102088.91;;;19.64;50.60
46464;BME280;32161;48.148;-1.554;2023-05-17T10:26:00;102104.88;;;19.62;51.16
46464;BME280;32161;48.148;-1.554;2023-05-17T10:28:28;102089.81;;;19.69;50.85
46464;BME280;32161;48.148;-1.554;2023-05-17T10:30:57;102090.50;;;19.82;51.48
46464;BME280;32161;48.148;-1.554;2023-05-17T10:33:26;102090.81;;;19.85;53.25
46464;BME280;32161;48.148;-1.554;2023-05-17T10:35:55;102080.88;;;19.84;52.15
46464;BME280;32161;48.148;-1.554;2023-05-17T10:38:23;102089.81;;;19.96;54.59
46464;BME280;32161;48.148;-1.554;2023-05-17T10:40:52;102086.94;;;20.13;52.41
46464;BME280;32161;48.148;-1.554;2023-05-17T10:43:22;102082.94;;;20.26;48.20
46464;BME280;32161;48.148;-1.554;2023-05-17T10:45:51;102086.63;;;20.10;49.29
46464;BME280;32161;48.148;-1.554;2023-05-17T10:48:18;102088.06;;;20.17;49.60
46464;BME280;32161;48.148;-1.554;2023-05-17T10:50:46;102083.25;;;20.30;49.70
46464;BME280;32161;48.148;-1.554;2023-05-17T10:53:14;102073.41;;;20.44;47.94
46464;BME280;32161;48.148;-1.554;2023-05-17T10:55:43;102076.97;;;20.44;50.09
46464;BME280;32161;48.148;-1.554;2023-05-17T10:58:16;102074.84;;;20.19;47.23
46464;BME280;32161;48.148;-1.554;2023-05-17T11:00:50;102076.03;;;20.29;49.16
46464;BME280;32161;48.148;-1.554;2023-05-17T11:03:21;102079.69;;;20.34;48.62
46464;BME280;32161;48.148;-1.554;2023-05-17T11:06:11;102073.50;;;20.49;48.37
46464;BME280;32161;48.148;-1.554;2023-05-17T11:08:44;102072.41;;;20.55;47.62
46464;BME280;32161;48.148;-1.554;2023-05-17T11:11:17;102068.03;;;20.59;50.36
46464;BME280;32161;48.148;-1.554;2023-05-17T11:13:49;102073.34;;;20.71;50.00
46464;BME280;32161;48.148;-1.554;2023-05-17T11:16:25;102066.50;;;20.79;49.35
46464;BME280;32161;48.148;-1.554;2023-05-17T11:18:54;102074.03;;;20.88;50.48
46464;BME280;32161;48.148;-1.554;2023-05-17T11:21:27;102075.50;;;21.06;50.08
46464;BME280;32161;48.148;-1.554;2023-05-17T11:24:02;102075.53;;;21.11;49.60
46464;BME280;32161;48.148;-1.554;2023-05-17T11:26:36;102071.06;;;21.05;47.60
46464;BME280;32161;48.148;-1.554;2023-05-17T11:29:07;102075.16;;;20.92;46.93
46464;BME280;32161;48.148;-1.554;2023-05-17T11:31:43;102076.22;;;20.86;46.52
46464;BME280;32161;48.148;-1.554;2023-05-17T11:34:11;102074.06;;;20.98;49.79
46464;BME280;32161;48.148;-1.554;2023-05-17T11:36:49;102070.56;;;21.13;47.94
46464;BME280;32161;48.148;-1.554;2023-05-17T11:39:20;102066.00;;;21.39;45.61
46464;BME280;32161;48.148;-1.554;2023-05-17T11:41:51;102059.63;;;21.34;46.86
46464;BME280;32161;48.148;-1.554;2023-05-17T11:44:29;102051.34;;;21.44;47.77
46464;BME280;32161;48.148;-1.554;2023-05-17T11:47:03;102055.00;;;21.55;45.27
46464;BME280;32161;48.148;-1.554;2023-05-17T11:49:35;102048.59;;;21.44;45.94
46464;BME280;32161;48.148;-1.554;2023-05-17T11:52:04;102050.72;;;21.32;46.01
46464;BME280;32161;48.148;-1.554;2023-05-17T11:54:32;102049.47;;;21.55;45.31
46464;BME280;32161;48.148;-1.554;2023-05-17T11:57:00;102049.75;;;21.53;44.29
46464;BME280;32161;48.148;-1.554;2023-05-17T11:59:28;102042.75;;;21.35;45.57
46464;BME280;32161;48.148;-1.554;2023-05-17T12:02:05;102045.75;;;21.29;45.15
46464;BME280;32161;48.148;-1.554;2023-05-17T12:04:36;102035.28;;;21.36;44.48
46464;BME280;32161;48.148;-1.554;2023-05-17T12:07:05;102033.63;;;21.35;45.06
46464;BME280;32161;48.148;-1.554;2023-05-17T12:09:35;102037.03;;;21.57;47.91
46464;BME280;32161;48.148;-1.554;2023-05-17T12:12:03;102043.09;;;21.49;44.76
46464;BME280;32161;48.148;-1.554;2023-05-17T12:14:32;102037.59;;;21.64;46.01
46464;BME280;32161;48.148;-1.554;2023-05-17T12:17:02;102026.81;;;21.78;44.48
46464;BME280;32161;48.148;-1.554;2023-05-17T12:19:31;102028.78;;;21.93;44.37
46464;BME280;32161;48.148;-1.554;2023-05-17T12:22:06;102024.34;;;21.92;44.02
46464;BME280;32161;48.148;-1.554;2023-05-17T12:24:37;102025.19;;;21.92;45.28
46464;BME280;32161;48.148;-1.554;2023-05-17T12:27:05;102028.25;;;22.06;43.64
46464;BME280;32161;48.148;-1.554;2023-05-17T12:29:33;102025.19;;;22.08;44.14
46464;BME280;32161;48.148;-1.554;2023-05-17T12:32:01;102024.66;;;22.11;46.53
46464;BME280;32161;48.148;-1.554;2023-05-17T12:34:30;102033.22;;;21.89;42.75
46464;BME280;32161;48.148;-1.554;2023-05-17T12:36:58;102017.97;;;21.86;42.93
46464;BME280;32161;48.148;-1.554;2023-05-17T12:39:26;102030.47;;;21.99;45.87
46464;BME280;32161;48.148;-1.554;2023-05-17T12:41:53;102020.53;;;22.18;46.14
46464;BME280;32161;48.148;-1.554;2023-05-17T12:44:22;102021.38;;;22.14;43.83
46464;BME280;32161;48.148;-1.554;2023-05-17T12:46:53;102022.16;;;22.04;44.92
46464;BME280;32161;48.148;-1.554;2023-05-17T12:49:22;102017.19;;;22.16;43.60
46464;BME280;32161;48.148;-1.554;2023-05-17T12:51:51;102021.91;;;22.16;44.65
46464;BME280;32161;48.148;-1.554;2023-05-17T12:54:26;102015.53;;;22.41;41.38
46464;BME280;32161;48.148;-1.554;2023-05-17T12:56:54;102014.66;;;22.40;45.74